createdAt,value
2018-11-06T00:00:12.598Z,46.20
2018-11-06T00:01:12.588Z,46.40
2018-11-06T00:02:12.578Z,42.00
2018-11-06T00:03:12.570Z,42.20
2018-11-06T00:04:12.556Z,42.00
2018-11-06T00:05:12.544Z,42.29
2018-11-06T00:06:12.535Z,42.79
2018-11-06T00:07:12.524Z,40.70
2018-11-06T00:08:12.510Z,40.40
2018-11-06T00:09:12.534Z,40.29
2018-11-06T00:10:12.487Z,41.09
2018-11-06T00:11:12.480Z,43.40
2018-11-06T00:12:12.465Z,45.20
2018-11-06T00:13:12.456Z,43.09
2018-11-06T00:14:12.442Z,48.40
2018-11-06T00:15:12.446Z,49.59
2018-11-06T00:16:12.424Z,40.00
2018-11-06T00:17:12.412Z,47.00
2018-11-06T00:18:12.399Z,44.90
2018-11-06T00:19:12.390Z,48.70
2018-11-06T00:20:12.378Z,48.50
2018-11-06T00:21:12.371Z,46.70
2018-11-06T00:22:12.357Z,47.50
2018-11-06T00:23:12.346Z,46.70
2018-11-06T00:24:12.333Z,45.09
2018-11-06T00:25:12.323Z,45.00
2018-11-06T00:26:12.314Z,45.70
2018-11-06T00:27:12.303Z,46.00
2018-11-06T00:28:12.340Z,43.20
2018-11-06T00:29:12.282Z,44.20
2018-11-06T00:30:12.271Z,45.09
2018-11-06T00:31:12.259Z,42.09
2018-11-06T00:32:12.249Z,43.40
2018-11-06T00:33:12.236Z,44.29
2018-11-06T00:34:12.260Z,45.29
2018-11-06T00:35:12.213Z,45.79
2018-11-06T00:36:12.206Z,41.50
2018-11-06T00:37:12.193Z,44.09
2018-11-06T00:38:12.180Z,45.70
2018-11-06T00:39:12.171Z,49.20
2018-11-06T00:40:12.159Z,41.90
2018-11-06T00:41:12.150Z,46.20
2018-11-06T00:42:12.135Z,49.00
2018-11-06T00:43:12.125Z,49.00
2018-11-06T00:44:12.160Z,43.20
2018-11-06T00:45:12.105Z,44.70
2018-11-06T00:46:12.092Z,41.70
2018-11-06T00:47:12.082Z,44.79
2018-11-06T00:48:12.071Z,48.29
2018-11-06T00:49:12.059Z,45.40
2018-11-06T00:50:12.047Z,46.00
2018-11-06T00:51:12.036Z,43.29
2018-11-06T00:52:12.026Z,47.40
2018-11-06T00:53:12.019Z,44.29
2018-11-06T00:54:12.007Z,44.29
2018-11-06T00:55:11.997Z,47.29
2018-11-06T00:56:11.983Z,47.79
2018-11-06T00:57:11.973Z,44.70
2018-11-06T00:58:11.960Z,47.90
2018-11-06T00:59:12.061Z,45.59
2018-11-06T01:00:11.943Z,47.40
2018-11-06T01:01:11.928Z,42.70
2018-11-06T01:02:11.922Z,45.50
2018-11-06T01:03:11.904Z,43.29
2018-11-06T01:04:11.894Z,48.79
2018-11-06T01:05:11.885Z,49.00
2018-11-06T01:06:11.871Z,55.50
2018-11-06T01:07:11.861Z,52.00
2018-11-06T01:08:11.849Z,52.20
2018-11-06T01:09:11.839Z,50.90
2018-11-06T01:10:11.828Z,51.50
2018-11-06T01:11:11.819Z,54.50
2018-11-06T01:12:11.807Z,47.40
2018-11-06T01:13:11.796Z,53.79
2018-11-06T01:14:11.784Z,59.79
2018-11-06T01:15:11.773Z,48.40
2018-11-06T01:16:11.764Z,51.09
2018-11-06T01:17:11.751Z,50.79
2018-11-06T01:18:11.743Z,50.50
2018-11-06T01:19:11.735Z,54.90
2018-11-06T01:20:11.721Z,46.50
2018-11-06T01:21:11.706Z,50.59
2018-11-06T01:22:11.697Z,45.29
2018-11-06T01:23:11.691Z,44.50
2018-11-06T01:24:11.674Z,49.59
2018-11-06T01:25:11.669Z,52.20
2018-11-06T01:26:11.653Z,47.79
2018-11-06T01:27:11.641Z,47.40
2018-11-06T01:28:11.631Z,49.79
2018-11-06T01:29:11.621Z,47.00
2018-11-06T01:30:11.610Z,49.70
2018-11-06T01:31:11.599Z,49.40
2018-11-06T01:32:11.587Z,49.20
2018-11-06T01:33:11.576Z,51.59
2018-11-06T01:34:11.567Z,47.59
2018-11-06T01:35:11.557Z,46.90
2018-11-06T01:36:11.544Z,50.79
2018-11-06T01:37:11.532Z,47.29
2018-11-06T01:38:11.520Z,45.90
2018-11-06T01:39:11.511Z,45.59
2018-11-06T01:40:11.499Z,54.90
2018-11-06T01:41:11.494Z,47.09
2018-11-06T01:42:11.482Z,45.59
2018-11-06T01:43:11.468Z,49.00
2018-11-06T01:44:11.455Z,49.40
2018-11-06T01:45:11.444Z,50.90
2018-11-06T01:46:11.436Z,46.09
2018-11-06T01:47:11.421Z,42.20
2018-11-06T01:48:11.428Z,47.00
2018-11-06T01:49:11.403Z,51.70
2018-11-06T01:50:11.399Z,47.00
2018-11-06T01:51:11.377Z,42.50
2018-11-06T01:52:11.368Z,48.90
2018-11-06T01:53:11.358Z,44.90
2018-11-06T01:54:11.347Z,43.40
2018-11-06T01:55:11.336Z,49.09
2018-11-06T01:56:11.324Z,49.00
2018-11-06T01:57:11.314Z,50.00
2018-11-06T01:58:11.304Z,43.09
2018-11-06T01:59:11.293Z,42.09
2018-11-06T02:00:11.281Z,45.90
2018-11-06T02:01:11.269Z,47.29
2018-11-06T02:02:11.259Z,48.70
2018-11-06T02:03:11.249Z,47.40
2018-11-06T02:04:11.236Z,44.40
2018-11-06T02:05:11.230Z,50.40
2018-11-06T02:06:11.213Z,55.20
2018-11-06T02:07:11.202Z,49.59
2018-11-06T02:08:11.192Z,48.09
2018-11-06T02:09:11.183Z,43.70
2018-11-06T02:10:11.171Z,48.79
2018-11-06T02:11:11.162Z,47.20
2018-11-06T02:12:11.149Z,44.09
2018-11-06T02:13:11.144Z,47.20
2018-11-06T02:14:11.128Z,44.70
2018-11-06T02:15:11.115Z,40.50
2018-11-06T02:16:11.106Z,45.59
2018-11-06T02:17:11.093Z,47.70
2018-11-06T02:18:11.084Z,48.59
2018-11-06T02:19:11.074Z,48.59
2018-11-06T02:20:11.065Z,52.70
2018-11-06T02:21:11.050Z,47.70
2018-11-06T02:22:11.041Z,40.40
2018-11-06T02:23:11.034Z,44.09
2018-11-06T02:24:11.018Z,44.79
2018-11-06T02:25:11.008Z,49.59
2018-11-06T02:26:10.998Z,45.50
2018-11-06T02:27:10.984Z,45.00
2018-11-06T02:28:10.975Z,45.40
2018-11-06T02:29:10.963Z,42.79
2018-11-06T02:30:10.952Z,47.20
2018-11-06T02:31:10.940Z,43.50
2018-11-06T02:32:11.013Z,43.20
2018-11-06T02:33:10.919Z,44.40
2018-11-06T02:34:10.909Z,45.40
2018-11-06T02:35:10.899Z,49.40
2018-11-06T02:36:10.888Z,49.09
2018-11-06T02:37:10.877Z,50.20
2018-11-06T02:38:10.865Z,50.70
2018-11-06T02:39:10.854Z,43.09
2018-11-06T02:40:10.844Z,43.59
2018-11-06T02:41:10.832Z,47.29
2018-11-06T02:42:10.822Z,49.00
2018-11-06T02:43:10.808Z,50.00
2018-11-06T02:44:10.803Z,43.20
2018-11-06T02:45:10.793Z,44.70
2018-11-06T02:46:10.779Z,46.09
2018-11-06T02:47:10.765Z,44.09
2018-11-06T02:48:10.760Z,41.50
2018-11-06T02:49:10.747Z,43.20
2018-11-06T02:50:10.734Z,43.09
2018-11-06T02:51:10.724Z,39.00
2018-11-06T02:52:10.712Z,45.79
2018-11-06T02:53:10.704Z,48.70
2018-11-06T02:54:10.695Z,49.29
2018-11-06T02:55:10.681Z,44.50
2018-11-06T02:56:10.671Z,43.00
2018-11-06T02:57:10.658Z,42.70
2018-11-06T02:58:10.647Z,47.59
2018-11-06T02:59:10.641Z,45.20
2018-11-06T03:00:10.625Z,44.00
2018-11-06T03:01:10.620Z,41.70
2018-11-06T03:02:10.606Z,46.09
2018-11-06T03:03:10.594Z,39.09
2018-11-06T03:04:10.582Z,40.40
2018-11-06T03:05:10.570Z,44.90
2018-11-06T03:06:10.561Z,39.59
2018-11-06T03:07:10.549Z,43.50
2018-11-06T03:08:10.540Z,40.09
2018-11-06T03:09:10.528Z,36.09
2018-11-06T03:10:10.570Z,39.50
2018-11-06T03:11:10.506Z,40.40
2018-11-06T03:12:10.495Z,42.59
2018-11-06T03:13:10.485Z,41.20
2018-11-06T03:14:10.472Z,40.50
2018-11-06T03:15:10.461Z,38.29
2018-11-06T03:16:10.451Z,38.29
2018-11-06T03:17:10.455Z,36.40
2018-11-06T03:18:10.429Z,38.79
2018-11-06T03:19:10.418Z,41.50
2018-11-06T03:20:10.407Z,40.50
2018-11-06T03:21:10.397Z,42.79
2018-11-06T03:22:10.386Z,37.40
2018-11-06T03:23:10.376Z,38.09
2018-11-06T03:24:10.365Z,39.20
2018-11-06T03:25:10.353Z,37.59
2018-11-06T03:26:10.352Z,37.20
2018-11-06T03:27:10.501Z,39.59
2018-11-06T03:28:10.322Z,37.79
2018-11-06T03:29:10.311Z,37.70
2018-11-06T03:30:10.298Z,35.70
2018-11-06T03:31:10.290Z,38.09
2018-11-06T03:32:10.279Z,39.50
2018-11-06T03:33:10.267Z,37.79
2018-11-06T03:34:10.255Z,33.70
2018-11-06T03:35:10.244Z,33.00
2018-11-06T03:36:10.234Z,36.50
2018-11-06T03:37:10.221Z,37.29
2018-11-06T03:38:10.213Z,38.79
2018-11-06T03:39:10.199Z,44.09
2018-11-06T03:40:10.189Z,35.29
2018-11-06T03:41:10.177Z,35.59
2018-11-06T03:42:10.168Z,35.20
2018-11-06T03:43:10.156Z,39.50
2018-11-06T03:44:10.148Z,35.50
2018-11-06T03:45:10.135Z,37.59
2018-11-06T03:46:10.126Z,36.29
2018-11-06T03:47:10.112Z,35.20
2018-11-06T03:48:10.102Z,33.29
2018-11-06T03:49:10.092Z,35.50
2018-11-06T03:50:10.081Z,40.79
2018-11-06T03:51:10.071Z,39.20
2018-11-06T03:52:10.058Z,41.09
2018-11-06T03:53:10.048Z,38.40
2018-11-06T03:54:10.040Z,35.59
2018-11-06T03:55:10.025Z,33.90
2018-11-06T03:56:10.025Z,37.20
2018-11-06T03:57:10.004Z,32.09
2018-11-06T03:58:09.995Z,32.70
2018-11-06T03:59:09.982Z,34.09
2018-11-06T04:00:09.971Z,36.09
2018-11-06T04:01:09.973Z,36.90
2018-11-06T04:02:09.952Z,35.20
2018-11-06T04:03:09.944Z,39.50
2018-11-06T04:04:09.928Z,39.00
2018-11-06T04:05:09.932Z,37.90
2018-11-06T04:06:09.907Z,37.79
2018-11-06T04:07:09.899Z,39.59
2018-11-06T04:08:09.892Z,32.79
2018-11-06T04:09:09.874Z,34.90
2018-11-06T04:10:09.866Z,36.29
2018-11-06T04:11:09.852Z,30.79
2018-11-06T04:12:09.841Z,39.20
2018-11-06T04:13:09.831Z,39.59
2018-11-06T04:14:09.820Z,30.79
2018-11-06T04:15:09.807Z,34.59
2018-11-06T04:16:09.798Z,37.50
2018-11-06T04:17:09.790Z,36.00
2018-11-06T04:18:09.776Z,33.00
2018-11-06T04:19:09.767Z,30.70
2018-11-06T04:20:09.755Z,32.09
2018-11-06T04:21:09.747Z,30.60
2018-11-06T04:22:09.731Z,31.50
2018-11-06T04:23:09.723Z,31.10
2018-11-06T04:24:09.710Z,33.29
2018-11-06T04:25:09.699Z,32.59
2018-11-06T04:26:09.687Z,32.79
2018-11-06T04:27:09.678Z,35.50
2018-11-06T04:28:09.667Z,31.50
2018-11-06T04:29:09.657Z,31.89
2018-11-06T04:30:09.670Z,34.29
2018-11-06T04:31:09.640Z,38.29
2018-11-06T04:32:09.623Z,35.70
2018-11-06T04:33:09.612Z,33.59
2018-11-06T04:34:09.602Z,30.00
2018-11-06T04:35:09.592Z,32.59
2018-11-06T04:36:09.580Z,32.59
2018-11-06T04:37:09.570Z,32.00
2018-11-06T04:38:09.561Z,32.90
2018-11-06T04:39:09.550Z,28.70
2018-11-06T04:40:09.539Z,30.10
2018-11-06T04:41:09.527Z,28.60
2018-11-06T04:42:09.514Z,29.79
2018-11-06T04:43:09.504Z,31.50
2018-11-06T04:44:09.493Z,30.79
2018-11-06T04:45:09.485Z,28.39
2018-11-06T04:46:09.472Z,28.50
2018-11-06T04:47:09.460Z,25.79
2018-11-06T04:48:09.448Z,27.60
2018-11-06T04:49:09.440Z,27.29
2018-11-06T04:50:09.432Z,25.50
2018-11-06T04:51:09.415Z,26.50
2018-11-06T04:52:09.404Z,25.00
2018-11-06T04:53:09.393Z,26.89
2018-11-06T04:54:09.384Z,24.60
2018-11-06T04:55:09.373Z,25.79
2018-11-06T04:56:09.361Z,26.60
2018-11-06T04:57:09.350Z,24.00
2018-11-06T04:58:09.340Z,24.29
2018-11-06T04:59:09.329Z,24.10
2018-11-06T05:00:09.317Z,25.89
2018-11-06T05:01:09.307Z,24.10
2018-11-06T05:02:09.361Z,24.29
2018-11-06T05:03:09.288Z,25.39
2018-11-06T05:04:09.273Z,23.29
2018-11-06T05:05:09.265Z,24.89
2018-11-06T05:06:09.252Z,26.89
2018-11-06T05:07:09.243Z,21.70
2018-11-06T05:08:09.231Z,24.70
2018-11-06T05:09:09.235Z,24.79
2018-11-06T05:10:09.212Z,27.39
2018-11-06T05:11:09.201Z,26.00
2018-11-06T05:12:09.189Z,24.79
2018-11-06T05:13:09.176Z,26.10
2018-11-06T05:14:09.246Z,25.39
2018-11-06T05:15:09.156Z,26.00
2018-11-06T05:16:09.145Z,27.70
2018-11-06T05:17:09.133Z,28.89
2018-11-06T05:18:09.122Z,24.89
2018-11-06T05:19:09.112Z,28.89
2018-11-06T05:20:09.100Z,24.70
2018-11-06T05:21:09.094Z,25.79
2018-11-06T05:22:09.083Z,25.29
2018-11-06T05:23:09.067Z,24.79
2018-11-06T05:24:09.059Z,26.89
2018-11-06T05:25:09.044Z,27.79
2018-11-06T05:26:09.035Z,23.60
2018-11-06T05:27:09.027Z,24.60
2018-11-06T05:28:09.015Z,24.50
2018-11-06T05:29:09.001Z,27.20
2018-11-06T05:30:08.989Z,26.29
2018-11-06T05:31:08.983Z,25.60
2018-11-06T05:32:09.015Z,24.50
2018-11-06T05:33:08.961Z,24.20
2018-11-06T05:34:08.947Z,22.00
2018-11-06T05:35:08.937Z,23.00
2018-11-06T05:36:08.930Z,21.70
2018-11-06T05:37:08.919Z,22.29
2018-11-06T05:38:08.904Z,23.29
2018-11-06T05:39:08.940Z,24.89
2018-11-06T05:40:08.880Z,24.79
2018-11-06T05:41:08.873Z,23.89
2018-11-06T05:42:08.859Z,24.00
2018-11-06T05:43:08.847Z,24.29
2018-11-06T05:44:08.910Z,26.60
2018-11-06T05:45:08.829Z,23.70
2018-11-06T05:46:08.818Z,25.89
2018-11-06T05:47:08.805Z,24.50
2018-11-06T05:48:08.795Z,26.60
2018-11-06T05:49:08.783Z,23.29
2018-11-06T05:50:08.770Z,23.89
2018-11-06T05:51:08.762Z,23.00
2018-11-06T05:52:08.751Z,22.89
2018-11-06T05:53:08.793Z,24.60
2018-11-06T05:54:08.735Z,24.29
2018-11-06T05:55:08.716Z,23.89
2018-11-06T05:56:08.712Z,22.79
2018-11-06T05:57:08.694Z,24.39
2018-11-06T05:58:08.683Z,23.20
2018-11-06T05:59:08.680Z,21.79
2018-11-06T06:00:08.667Z,23.10
2018-11-06T06:01:08.655Z,24.50
2018-11-06T06:02:08.642Z,24.70
2018-11-06T06:03:08.630Z,23.20
2018-11-06T06:04:08.618Z,24.39
2018-11-06T06:05:08.610Z,22.50
2018-11-06T06:06:08.595Z,22.39
2018-11-06T06:07:08.586Z,22.20
2018-11-06T06:08:08.583Z,23.70
2018-11-06T06:09:08.563Z,22.20
2018-11-06T06:10:08.555Z,21.39
2018-11-06T06:11:08.683Z,22.29
2018-11-06T06:12:08.531Z,21.39
2018-11-06T06:13:08.518Z,23.10
2018-11-06T06:14:08.509Z,21.70
2018-11-06T06:15:08.497Z,22.39
2018-11-06T06:16:08.485Z,21.00
2018-11-06T06:17:08.487Z,23.20
2018-11-06T06:18:08.465Z,22.10
2018-11-06T06:19:08.458Z,22.10
2018-11-06T06:20:08.444Z,20.60
2018-11-06T06:21:08.434Z,23.39
2018-11-06T06:22:08.420Z,23.29
2018-11-06T06:23:08.410Z,23.00
2018-11-06T06:24:08.401Z,22.29
2018-11-06T06:25:08.390Z,22.29
2018-11-06T06:26:08.377Z,21.70
2018-11-06T06:27:08.366Z,20.70
2018-11-06T06:28:08.357Z,23.50
2018-11-06T06:29:08.344Z,22.60
2018-11-06T06:30:08.333Z,20.29
2018-11-06T06:31:08.323Z,21.29
2018-11-06T06:32:08.311Z,21.20
2018-11-06T06:33:08.301Z,21.79
2018-11-06T06:34:08.289Z,22.70
2018-11-06T06:35:08.335Z,20.79
2018-11-06T06:36:08.271Z,22.39
2018-11-06T06:37:08.256Z,23.89
2018-11-06T06:38:08.247Z,22.00
2018-11-06T06:39:08.235Z,24.70
2018-11-06T06:40:08.293Z,23.60
2018-11-06T06:41:08.213Z,24.00
2018-11-06T06:42:08.202Z,24.70
2018-11-06T06:43:08.191Z,24.70
2018-11-06T06:44:08.183Z,23.79
2018-11-06T06:45:08.169Z,24.50
2018-11-06T06:46:08.175Z,25.10
2018-11-06T06:47:08.146Z,22.79
2018-11-06T06:48:08.137Z,24.60
2018-11-06T06:49:08.126Z,25.60
2018-11-06T06:50:08.116Z,23.89
2018-11-06T06:51:08.103Z,22.89
2018-11-06T06:52:08.091Z,22.20
2018-11-06T06:53:08.083Z,22.60
2018-11-06T06:54:08.213Z,21.00
2018-11-06T06:55:08.093Z,21.10
2018-11-06T06:56:08.048Z,22.39
2018-11-06T06:57:08.038Z,20.89
2018-11-06T06:58:08.028Z,20.00
2018-11-06T06:59:08.018Z,20.29
2018-11-06T07:00:08.017Z,20.50
2018-11-06T07:01:07.993Z,19.79
2018-11-06T07:02:07.983Z,19.79
2018-11-06T07:03:07.971Z,20.20
2018-11-06T07:04:07.960Z,19.89
2018-11-06T07:05:08.000Z,19.10
2018-11-06T07:06:07.938Z,20.29
2018-11-06T07:07:07.929Z,21.79
2018-11-06T07:08:07.918Z,21.79
2018-11-06T07:09:07.905Z,20.89
2018-11-06T07:10:07.894Z,21.50
2018-11-06T07:11:07.885Z,20.79
2018-11-06T07:12:07.876Z,21.00
2018-11-06T07:13:07.933Z,20.89
2018-11-06T07:14:07.851Z,22.10
2018-11-06T07:15:07.841Z,23.00
2018-11-06T07:16:07.832Z,23.50
2018-11-06T07:17:07.823Z,20.70
2018-11-06T07:18:07.808Z,22.70
2018-11-06T07:19:07.796Z,21.10
2018-11-06T07:20:07.788Z,23.79
2018-11-06T07:21:07.776Z,22.39
2018-11-06T07:22:07.762Z,22.00
2018-11-06T07:23:07.753Z,23.60
2018-11-06T07:24:07.754Z,21.10
2018-11-06T07:25:07.730Z,22.39
2018-11-06T07:26:07.721Z,22.89
2018-11-06T07:27:07.710Z,24.00
2018-11-06T07:28:07.699Z,24.39
2018-11-06T07:29:07.687Z,23.10
2018-11-06T07:30:07.678Z,21.70
2018-11-06T07:31:07.666Z,23.70
2018-11-06T07:32:07.655Z,23.79
2018-11-06T07:33:07.647Z,22.50
2018-11-06T07:34:07.633Z,23.70
2018-11-06T07:35:07.832Z,24.39
2018-11-06T07:36:07.611Z,21.70
2018-11-06T07:37:07.599Z,21.70
2018-11-06T07:38:07.599Z,22.39
2018-11-06T07:39:07.580Z,21.60
2018-11-06T07:40:07.564Z,20.50
2018-11-06T07:41:07.695Z,20.79
2018-11-06T07:42:07.548Z,20.89
2018-11-06T07:43:07.536Z,21.29
2018-11-06T07:44:07.523Z,19.50
2018-11-06T07:45:07.511Z,20.60
2018-11-06T07:46:07.501Z,18.79
2018-11-06T07:47:07.487Z,19.20
2018-11-06T07:48:07.480Z,18.79
2018-11-06T07:49:07.471Z,18.79
2018-11-06T07:50:07.493Z,19.29
2018-11-06T07:51:07.443Z,18.70
2018-11-06T07:52:07.434Z,19.70
2018-11-06T07:53:07.422Z,19.10
2018-11-06T07:54:07.416Z,17.89
2018-11-06T07:55:07.399Z,18.29
2018-11-06T07:56:07.454Z,17.79
2018-11-06T07:57:07.386Z,17.89
2018-11-06T07:58:07.370Z,16.79
2018-11-06T07:59:07.362Z,17.89
2018-11-06T08:00:07.347Z,17.60
2018-11-06T08:01:07.335Z,17.50
2018-11-06T08:02:07.326Z,18.29
2018-11-06T08:03:07.311Z,18.39
2018-11-06T08:04:07.323Z,17.89
2018-11-06T08:05:07.291Z,18.29
2018-11-06T08:06:07.324Z,16.70
2018-11-06T08:07:07.276Z,17.10
2018-11-06T08:08:07.258Z,17.20
2018-11-06T08:09:07.246Z,18.20
2018-11-06T08:10:07.236Z,18.20
2018-11-06T08:11:07.225Z,16.79
2018-11-06T08:12:07.217Z,17.10
2018-11-06T08:13:07.205Z,16.39
2018-11-06T08:14:07.191Z,17.50
2018-11-06T08:15:07.255Z,17.79
2018-11-06T08:16:07.170Z,17.70
2018-11-06T08:17:07.159Z,17.70
2018-11-06T08:18:07.309Z,18.20
2018-11-06T08:19:07.138Z,17.79
2018-11-06T08:20:07.126Z,18.00
2018-11-06T08:21:07.117Z,16.29
2018-11-06T08:22:07.104Z,16.89
2018-11-06T08:23:07.097Z,17.10
2018-11-06T08:24:07.082Z,18.50
2018-11-06T08:25:07.074Z,17.20
2018-11-06T08:26:07.060Z,16.89
2018-11-06T08:27:07.050Z,16.79
2018-11-06T08:28:07.054Z,17.10
2018-11-06T08:29:07.044Z,17.70
2018-11-06T08:30:07.025Z,17.89
2018-11-06T08:31:07.080Z,18.00
2018-11-06T08:32:07.216Z,17.70
2018-11-06T08:33:06.986Z,19.10
2018-11-06T08:34:06.972Z,18.39
2018-11-06T08:35:06.962Z,18.00
2018-11-06T08:36:06.950Z,18.10
2018-11-06T08:37:07.004Z,16.89
2018-11-06T08:38:06.935Z,17.20
2018-11-06T08:39:07.022Z,19.20
2018-11-06T08:40:06.907Z,19.60
2018-11-06T08:41:06.894Z,18.00
2018-11-06T08:42:06.885Z,18.70
2018-11-06T08:43:06.875Z,19.20
2018-11-06T08:44:06.862Z,18.39
2018-11-06T08:45:06.851Z,18.20
2018-11-06T08:46:06.842Z,18.60
2018-11-06T08:47:06.829Z,17.60
2018-11-06T08:48:06.860Z,18.50
2018-11-06T08:49:06.808Z,17.89
2018-11-06T08:50:06.797Z,19.29
2018-11-06T08:51:06.784Z,18.60
2018-11-06T08:52:06.776Z,18.29
2018-11-06T08:53:06.764Z,18.29
2018-11-06T08:54:06.752Z,18.10
2018-11-06T08:55:06.742Z,18.39
2018-11-06T08:56:06.731Z,19.29
2018-11-06T08:57:06.719Z,18.60
2018-11-06T08:58:06.707Z,18.60
2018-11-06T08:59:06.697Z,18.70
2018-11-06T09:00:06.687Z,21.10
2018-11-06T09:01:06.674Z,17.39
2018-11-06T09:02:06.664Z,19.50
2018-11-06T09:03:06.655Z,19.10
2018-11-06T09:04:06.650Z,19.00
2018-11-06T09:05:06.630Z,18.60
2018-11-06T09:06:06.619Z,18.60
2018-11-06T09:07:06.610Z,18.70
2018-11-06T09:08:06.596Z,18.39
2018-11-06T09:09:06.588Z,19.10
2018-11-06T09:10:06.575Z,18.29
2018-11-06T09:11:06.564Z,18.89
2018-11-06T09:12:06.554Z,18.39
2018-11-06T09:13:06.544Z,18.50
2018-11-06T09:14:06.536Z,18.79
2018-11-06T09:15:06.520Z,18.60
2018-11-06T09:16:06.511Z,19.60
2018-11-06T09:17:06.588Z,18.20
2018-11-06T09:18:06.489Z,19.10
2018-11-06T09:19:06.478Z,17.70
2018-11-06T09:20:06.469Z,19.89
2018-11-06T09:21:06.458Z,18.20
2018-11-06T09:22:06.449Z,17.60
2018-11-06T09:23:06.434Z,19.29
2018-11-06T09:24:06.426Z,18.20
2018-11-06T09:25:06.410Z,21.39
2018-11-06T09:26:06.401Z,23.20
2018-11-06T09:27:06.389Z,21.29
2018-11-06T09:28:06.380Z,21.39
2018-11-06T09:29:06.398Z,20.10
2018-11-06T09:30:06.357Z,20.79
2018-11-06T09:31:06.420Z,18.50
2018-11-06T09:32:06.336Z,20.29
2018-11-06T09:33:06.321Z,18.00
2018-11-06T09:34:06.311Z,18.00
2018-11-06T09:35:06.343Z,18.10
2018-11-06T09:36:06.291Z,17.70
2018-11-06T09:37:06.279Z,19.29
2018-11-06T09:38:06.270Z,18.20
2018-11-06T09:39:06.255Z,18.39
2018-11-06T09:40:06.247Z,18.60
2018-11-06T09:41:06.272Z,17.70
2018-11-06T09:42:06.226Z,17.39
2018-11-06T09:43:06.212Z,17.60
2018-11-06T09:44:06.201Z,17.70
2018-11-06T09:45:06.214Z,17.00
2018-11-06T09:46:06.181Z,18.29
2018-11-06T09:47:06.183Z,19.60
2018-11-06T09:48:06.160Z,17.60
2018-11-06T09:49:06.147Z,16.79
2018-11-06T09:50:06.139Z,17.79
2018-11-06T09:51:06.124Z,16.89
2018-11-06T09:52:06.211Z,18.00
2018-11-06T09:53:06.105Z,16.89
2018-11-06T09:54:06.092Z,16.39
2018-11-06T09:55:06.082Z,16.89
2018-11-06T09:56:06.071Z,16.70
2018-11-06T09:57:06.060Z,15.89
2018-11-06T09:58:06.049Z,16.29
2018-11-06T09:59:06.037Z,16.89
2018-11-06T10:00:06.051Z,15.80
2018-11-06T10:01:06.016Z,16.79
2018-11-06T10:02:06.005Z,15.39
2018-11-06T10:03:05.993Z,16.29
2018-11-06T10:04:05.984Z,15.60
2018-11-06T10:05:05.970Z,15.89
2018-11-06T10:06:06.045Z,15.39
2018-11-06T10:07:06.333Z,15.60
2018-11-06T10:08:05.944Z,16.39
2018-11-06T10:09:05.954Z,15.80
2018-11-06T10:10:05.925Z,16.89
2018-11-06T10:11:05.908Z,15.50
2018-11-06T10:12:05.895Z,15.69
2018-11-06T10:13:05.883Z,16.50
2018-11-06T10:14:05.873Z,17.00
2018-11-06T10:15:05.863Z,16.60
2018-11-06T10:16:05.853Z,15.50
2018-11-06T10:17:05.842Z,15.80
2018-11-06T10:18:05.829Z,16.00
2018-11-06T10:19:05.818Z,15.39
2018-11-06T10:20:05.808Z,16.29
2018-11-06T10:21:05.889Z,15.80
2018-11-06T10:22:05.785Z,16.29
2018-11-06T10:23:05.774Z,16.20
2018-11-06T10:24:05.765Z,16.60
2018-11-06T10:25:05.752Z,16.29
2018-11-06T10:26:05.741Z,16.70
2018-11-06T10:27:05.731Z,16.29
2018-11-06T10:28:05.721Z,15.69
2018-11-06T10:29:05.706Z,17.50
2018-11-06T10:30:05.698Z,17.10
2018-11-06T10:31:05.688Z,16.50
2018-11-06T10:32:05.676Z,16.29
2018-11-06T10:33:05.670Z,15.89
2018-11-06T10:34:05.655Z,15.89
2018-11-06T10:35:05.645Z,16.29
2018-11-06T10:36:05.632Z,17.20
2018-11-06T10:37:05.621Z,16.79
2018-11-06T10:38:05.642Z,16.70
2018-11-06T10:39:05.601Z,16.70
2018-11-06T10:40:05.589Z,16.70
2018-11-06T10:41:05.578Z,15.80
2018-11-06T10:42:05.566Z,15.89
2018-11-06T10:43:05.562Z,17.10
2018-11-06T10:44:05.543Z,16.60
2018-11-06T10:45:05.534Z,16.00
2018-11-06T10:46:05.522Z,16.10
2018-11-06T10:47:05.509Z,15.60
2018-11-06T10:48:05.499Z,15.89
2018-11-06T10:49:05.489Z,16.10
2018-11-06T10:50:05.487Z,16.10
2018-11-06T10:51:05.467Z,14.80
2018-11-06T10:52:05.455Z,16.10
2018-11-06T10:53:05.444Z,14.89
2018-11-06T10:54:05.436Z,14.80
2018-11-06T10:55:05.424Z,15.19
2018-11-06T10:56:05.411Z,15.10
2018-11-06T10:57:05.400Z,15.69
2018-11-06T10:58:05.400Z,15.00
2018-11-06T10:59:05.379Z,15.19
2018-11-06T11:00:05.370Z,14.80
2018-11-06T11:01:05.359Z,15.00
2018-11-06T11:02:05.345Z,15.19
2018-11-06T11:03:05.337Z,16.10
2018-11-06T11:04:05.365Z,15.30
2018-11-06T11:05:05.314Z,14.80
2018-11-06T11:06:05.308Z,15.19
2018-11-06T11:07:05.293Z,15.50
2018-11-06T11:08:05.288Z,16.79
2018-11-06T11:09:05.268Z,15.39
2018-11-06T11:10:05.257Z,15.19
2018-11-06T11:11:05.250Z,15.50
2018-11-06T11:12:05.246Z,15.50
2018-11-06T11:13:05.252Z,15.19
2018-11-06T11:14:05.216Z,15.19
2018-11-06T11:15:05.203Z,14.60
2018-11-06T11:16:05.192Z,15.39
2018-11-06T11:17:05.188Z,15.19
2018-11-06T11:18:05.169Z,15.50
2018-11-06T11:19:05.157Z,15.89
2018-11-06T11:20:05.223Z,15.89
2018-11-06T11:21:05.137Z,15.00
2018-11-06T11:22:05.125Z,15.50
2018-11-06T11:23:05.116Z,15.69
2018-11-06T11:24:05.104Z,15.30
2018-11-06T11:25:05.091Z,14.80
2018-11-06T11:26:05.082Z,16.39
2018-11-06T11:27:05.073Z,15.00
2018-11-06T11:28:05.060Z,14.60
2018-11-06T11:29:05.048Z,15.30
2018-11-06T11:30:05.040Z,14.39
2018-11-06T11:31:05.032Z,16.00
2018-11-06T11:32:05.017Z,14.19
2018-11-06T11:33:05.006Z,14.89
2018-11-06T11:34:04.996Z,14.60
2018-11-06T11:35:04.983Z,14.30
2018-11-06T11:36:04.973Z,16.20
2018-11-06T11:37:04.961Z,13.80
2018-11-06T11:38:04.950Z,14.69
2018-11-06T11:39:04.940Z,13.50
2018-11-06T11:40:04.929Z,13.80
2018-11-06T11:41:04.918Z,13.10
2018-11-06T11:42:04.907Z,13.80
2018-11-06T11:43:04.896Z,14.69
2018-11-06T11:44:04.884Z,14.50
2018-11-06T11:45:04.872Z,14.60
2018-11-06T11:46:04.864Z,14.19
2018-11-06T11:47:04.850Z,14.00
2018-11-06T11:48:04.844Z,13.69
2018-11-06T11:49:04.829Z,14.30
2018-11-06T11:50:04.818Z,14.60
2018-11-06T11:51:04.808Z,14.89
2018-11-06T11:52:04.798Z,16.29
2018-11-06T11:53:04.785Z,13.80
2018-11-06T11:54:04.774Z,14.00
2018-11-06T11:55:04.766Z,14.19
2018-11-06T11:56:04.752Z,13.30
2018-11-06T11:57:04.742Z,14.00
2018-11-06T11:58:04.731Z,13.80
2018-11-06T11:59:04.720Z,12.00
2018-11-06T12:00:04.756Z,15.00
2018-11-06T12:01:04.697Z,13.80
2018-11-06T12:02:04.692Z,14.10
2018-11-06T12:03:04.676Z,14.00
2018-11-06T12:04:04.665Z,13.50
2018-11-06T12:05:04.652Z,13.80
2018-11-06T12:06:04.644Z,15.69
2018-11-06T12:07:04.632Z,15.10
2018-11-06T12:08:04.621Z,14.50
2018-11-06T12:09:04.610Z,13.89
2018-11-06T12:10:04.600Z,14.00
2018-11-06T12:11:04.589Z,13.50
2018-11-06T12:12:04.581Z,14.30
2018-11-06T12:13:04.568Z,13.00
2018-11-06T12:14:04.556Z,14.00
2018-11-06T12:15:04.546Z,15.50
2018-11-06T12:16:04.533Z,14.00
2018-11-06T12:17:04.521Z,13.60
2018-11-06T12:18:04.542Z,13.69
2018-11-06T12:19:04.504Z,13.10
2018-11-06T12:20:04.491Z,12.69
2018-11-06T12:21:04.479Z,12.89
2018-11-06T12:22:04.468Z,12.30
2018-11-06T12:23:04.459Z,11.69
2018-11-06T12:24:04.495Z,12.50
2018-11-06T12:25:04.615Z,12.50
2018-11-06T12:26:04.423Z,12.19
2018-11-06T12:27:04.411Z,13.80
2018-11-06T12:28:04.409Z,13.60
2018-11-06T12:29:04.392Z,13.39
2018-11-06T12:30:04.382Z,14.89
2018-11-06T12:31:04.370Z,13.69
2018-11-06T12:32:04.360Z,12.19
2018-11-06T12:33:04.354Z,12.00
2018-11-06T12:34:04.339Z,13.80
2018-11-06T12:35:04.328Z,12.10
2018-11-06T12:36:04.315Z,15.00
2018-11-06T12:37:04.372Z,12.30
2018-11-06T12:38:04.294Z,12.39
2018-11-06T12:39:04.281Z,12.10
2018-11-06T12:40:04.275Z,11.60
2018-11-06T12:41:04.260Z,12.80
2018-11-06T12:42:04.250Z,12.19
2018-11-06T12:43:04.325Z,12.39
2018-11-06T12:44:04.228Z,11.89
2018-11-06T12:45:04.219Z,13.80
2018-11-06T12:46:04.211Z,14.10
2018-11-06T12:47:04.194Z,11.50
2018-11-06T12:48:04.188Z,12.10
2018-11-06T12:49:04.174Z,11.89
2018-11-06T12:50:04.215Z,10.89
2018-11-06T12:51:04.152Z,11.50
2018-11-06T12:52:04.140Z,12.19